Time;durP1;ratioP1;P1;durP2;ratioP2;P2;SDS_P1;SDS_P2;PMS_P1;PMS_P2;Temp;Humidity;BMP_temperature;BMP_pressure;BME280_temperature;BME280_humidity;BME280_pressure;Samples;Min_cycle;Max_cycle;Signal;HPM_P1;HPM_P2
2022/01/07 00:00:42;;;;;;;18.75;4.53;;;;;;;;;;4994953;28;20022;-26
2022/01/07 00:03:09;;;;;;;23.77;3.55;;;;;;;;;;4994890;28;20409;-25
2022/01/07 00:05:35;;;;;;;14.40;4.90;;;;;;;;;;4994891;28;20054;-26
2022/01/07 00:08:01;;;;;;;19.98;2.90;;;;;;;;;;4994884;28;20044;-24
2022/01/07 00:10:27;;;;;;;13.18;3.95;;;;;;;;;;4994087;28;20054;-25
2022/01/07 00:12:54;;;;;;;22.10;7.38;;;;;;;;;;4995511;28;20034;-26
2022/01/07 00:15:20;;;;;;;20.65;5.38;;;;;;;;;;4993795;28;20036;-25
2022/01/07 00:17:47;;;;;;;18.95;3.88;;;;;;;;;;4994694;28;20109;-25
2022/01/07 00:20:14;;;;;;;11.48;2.85;;;;;;;;;;4994778;28;20022;-26
2022/01/07 00:22:41;;;;;;;12.50;3.78;;;;;;;;;;4993662;28;20106;-25
2022/01/07 00:25:08;;;;;;;14.77;2.95;;;;;;;;;;4993796;28;20108;-25
2022/01/07 00:27:34;;;;;;;10.57;3.25;;;;;;;;;;4994645;28;20039;-25
2022/01/07 00:30:01;;;;;;;11.90;3.55;;;;;;;;;;4993769;28;20446;-25
2022/01/07 00:32:27;;;;;;;12.88;3.65;;;;;;;;;;4994851;28;20122;-25
2022/01/07 00:34:53;;;;;;;10.93;2.75;;;;;;;;;;4994668;28;20046;-25
2022/01/07 00:37:19;;;;;;;10.05;2.80;;;;;;;;;;4994555;28;20034;-25
2022/01/07 00:39:47;;;;;;;11.50;3.05;;;;;;;;;;4995119;28;20040;-26
2022/01/07 00:42:13;;;;;;;11.43;2.90;;;;;;;;;;4994547;28;20031;-25
2022/01/07 00:44:39;;;;;;;17.02;3.03;;;;;;;;;;4994938;28;20029;-26
2022/01/07 00:47:06;;;;;;;17.50;3.97;;;;;;;;;;4994872;28;20080;-26
2022/01/07 00:49:32;;;;;;;12.90;5.03;;;;;;;;;;4994649;28;20516;-26
2022/01/07 00:51:59;;;;;;;13.63;3.92;;;;;;;;;;4994449;28;20481;-26
2022/01/07 00:54:26;;;;;;;13.93;3.63;;;;;;;;;;4994816;28;20390;-26
2022/01/07 00:56:53;;;;;;;15.27;2.88;;;;;;;;;;4994738;28;20030;-25
2022/01/07 00:59:19;;;;;;;11.77;3.15;;;;;;;;;;4994855;28;20027;-25
2022/01/07 01:01:46;;;;;;;10.98;3.15;;;;;;;;;;4998031;28;20029;-25
2022/01/07 01:04:13;;;;;;;10.63;2.83;;;;;;;;;;4997933;28;20050;-26
2022/01/07 01:06:41;;;;;;;12.82;3.33;;;;;;;;;;4997977;28;20019;-25
2022/01/07 01:09:10;;;;;;;16.42;3.78;;;;;;;;;;4998242;28;20023;-25
2022/01/07 01:11:36;;;;;;;15.73;2.90;;;;;;;;;;4998473;28;20102;-25
2022/01/07 01:14:03;;;;;;;7.70;3.17;;;;;;;;;;4997888;28;20053;-25
2022/01/07 01:16:29;;;;;;;19.00;3.42;;;;;;;;;;4997837;28;20416;-25
2022/01/07 01:18:55;;;;;;;14.38;2.50;;;;;;;;;;4998262;28;20448;-25
2022/01/07 01:21:21;;;;;;;8.30;2.38;;;;;;;;;;4997730;28;20095;-25
2022/01/07 01:23:50;;;;;;;9.68;3.17;;;;;;;;;;4997659;28;20508;-26
2022/01/07 01:26:18;;;;;;;9.60;2.90;;;;;;;;;;4997715;28;20026;-25
2022/01/07 01:28:44;;;;;;;11.88;2.97;;;;;;;;;;4997527;28;20026;-25
2022/01/07 01:31:14;;;;;;;7.50;3.35;;;;;;;;;;4997556;28;20041;-26
2022/01/07 01:33:40;;;;;;;11.35;2.75;;;;;;;;;;4997458;28;20035;-26
2022/01/07 01:36:08;;;;;;;13.15;3.13;;;;;;;;;;4997733;28;20054;-26
2022/01/07 01:38:35;;;;;;;13.10;3.65;;;;;;;;;;4997631;28;20050;-26
2022/01/07 01:41:01;;;;;;;6.45;2.83;;;;;;;;;;4997631;28;20049;-26
2022/01/07 01:43:27;;;;;;;8.93;2.97;;;;;;;;;;4997307;28;20034;-25
2022/01/07 01:45:54;;;;;;;10.98;2.92;;;;;;;;;;4997294;28;20357;-25
2022/01/07 01:48:20;;;;;;;12.07;3.08;;;;;;;;;;4997702;28;20034;-26
2022/01/07 01:50:50;;;;;;;6.80;3.40;;;;;;;;;;4997214;28;20092;-25
2022/01/07 01:53:16;;;;;;;14.82;4.50;;;;;;;;;;4997368;28;20027;-26
2022/01/07 01:55:43;;;;;;;6.93;2.63;;;;;;;;;;4997490;28;20023;-26
2022/01/07 01:58:11;;;;;;;16.17;2.97;;;;;;;;;;4997524;28;20156;-25
2022/01/07 02:00:37;;;;;;;8.23;2.15;;;;;;;;;;4997324;28;20358;-26
2022/01/07 02:03:05;;;;;;;8.63;3.42;;;;;;;;;;4995793;28;20061;-25
2022/01/07 02:05:31;;;;;;;9.18;2.70;;;;;;;;;;4997253;28;20030;-26
2022/01/07 02:07:58;;;;;;;10.00;3.35;;;;;;;;;;4996913;28;20085;-26
2022/01/07 02:10:25;;;;;;;15.18;3.17;;;;;;;;;;4996766;28;20469;-25
2022/01/07 02:12:51;;;;;;;8.85;2.92;;;;;;;;;;4996070;28;20053;-25
2022/01/07 02:15:18;;;;;;;7.28;3.40;;;;;;;;;;4997200;28;20109;-25
2022/01/07 02:17:45;;;;;;;10.98;3.28;;;;;;;;;;4996853;28;20071;-25
2022/01/07 02:20:13;;;;;;;11.30;3.55;;;;;;;;;;4997098;28;20457;-26
2022/01/07 02:22:39;;;;;;;11.88;2.90;;;;;;;;;;4996373;28;20030;-25
2022/01/07 02:25:06;;;;;;;9.77;2.80;;;;;;;;;;4996469;28;20037;-25
2022/01/07 02:27:35;;;;;;;9.77;3.15;;;;;;;;;;4996672;28;20405;-25
2022/01/07 02:30:02;;;;;;;8.27;2.60;;;;;;;;;;4996342;28;20046;-26
2022/01/07 02:32:28;;;;;;;17.13;3.75;;;;;;;;;;4996297;28;20030;-26
2022/01/07 02:34:54;;;;;;;11.07;2.67;;;;;;;;;;4996586;28;20035;-25
2022/01/07 02:37:20;;;;;;;11.73;2.70;;;;;;;;;;4996131;28;20030;-25
2022/01/07 02:39:49;;;;;;;13.23;3.13;;;;;;;;;;4995312;28;20114;-25
2022/01/07 02:42:15;;;;;;;6.90;3.00;;;;;;;;;;4996369;28;20018;-26
2022/01/07 02:44:42;;;;;;;8.27;2.80;;;;;;;;;;4996174;28;20046;-26
2022/01/07 02:47:08;;;;;;;21.88;3.83;;;;;;;;;;4996125;28;20489;-25
2022/01/07 02:49:34;;;;;;;14.73;3.78;;;;;;;;;;4996349;28;20030;-25
2022/01/07 02:52:00;;;;;;;7.70;3.85;;;;;;;;;;4995957;28;20565;-25
2022/01/07 02:54:27;;;;;;;14.63;3.50;;;;;;;;;;4996237;28;20034;-25
2022/01/07 02:56:53;;;;;;;6.88;2.28;;;;;;;;;;4995877;28;20457;-26
2022/01/07 02:59:19;;;;;;;8.57;3.08;;;;;;;;;;4996203;28;20181;-26
2022/01/07 03:01:46;;;;;;;6.30;2.47;;;;;;;;;;4996007;28;20045;-25
2022/01/07 03:04:12;;;;;;;13.80;2.97;;;;;;;;;;4995693;28;20129;-25
2022/01/07 03:06:38;;;;;;;8.30;2.90;;;;;;;;;;4996083;28;20589;-26
2022/01/07 03:09:06;;;;;;;7.88;2.67;;;;;;;;;;4995999;28;20098;-25
2022/01/07 03:11:33;;;;;;;12.25;3.40;;;;;;;;;;4995902;28;20100;-26
2022/01/07 03:13:59;;;;;;;14.20;2.25;;;;;;;;;;4995568;28;20033;-25
2022/01/07 03:16:25;;;;;;;9.73;4.40;;;;;;;;;;4995861;28;20036;-26
2022/01/07 03:18:51;;;;;;;10.10;3.17;;;;;;;;;;4995996;28;20027;-25
2022/01/07 03:21:18;;;;;;;7.05;2.55;;;;;;;;;;4995443;28;20030;-25
2022/01/07 03:23:44;;;;;;;11.10;2.70;;;;;;;;;;4994487;28;20042;-25
2022/01/07 03:26:10;;;;;;;8.75;3.10;;;;;;;;;;4995386;28;20034;-25
2022/01/07 03:28:38;;;;;;;8.82;2.05;;;;;;;;;;4995694;28;20408;-25
2022/01/07 03:31:05;;;;;;;7.40;3.03;;;;;;;;;;4995642;28;20417;-25
2022/01/07 03:33:31;;;;;;;6.32;2.00;;;;;;;;;;4995294;28;20089;-26
2022/01/07 03:35:57;;;;;;;6.82;2.40;;;;;;;;;;4995344;28;20061;-25
2022/01/07 03:38:24;;;;;;;6.55;2.72;;;;;;;;;;4995421;28;20366;-25
2022/01/07 03:40:50;;;;;;;12.98;2.78;;;;;;;;;;4995216;28;20026;-26
2022/01/07 03:43:16;;;;;;;12.52;3.05;;;;;;;;;;4995164;28;20416;-25
2022/01/07 03:45:43;;;;;;;10.93;3.50;;;;;;;;;;4995748;28;20022;-25
2022/01/07 03:48:09;;;;;;;8.07;2.05;;;;;;;;;;4995152;28;20124;-25
2022/01/07 03:50:36;;;;;;;5.45;2.33;;;;;;;;;;4995284;28;20461;-25
2022/01/07 03:53:02;;;;;;;9.27;2.38;;;;;;;;;;4994899;28;20468;-25
2022/01/07 03:55:30;;;;;;;5.22;2.13;;;;;;;;;;4995079;28;20138;-25
2022/01/07 03:57:57;;;;;;;4.55;2.05;;;;;;;;;;4994981;28;20023;-26
2022/01/07 04:00:25;;;;;;;6.30;2.72;;;;;;;;;;4995201;28;20018;-25
2022/01/07 04:02:52;;;;;;;5.28;2.00;;;;;;;;;;4994694;28;20034;-25
2022/01/07 04:05:21;;;;;;;8.27;3.50;;;;;;;;;;4994854;28;20034;-25
2022/01/07 04:07:48;;;;;;;8.13;4.53;;;;;;;;;;4995184;28;20030;-25
2022/01/07 04:10:14;;;;;;;5.93;2.20;;;;;;;;;;4995042;28;20113;-25
2022/01/07 04:12:40;;;;;;;9.82;2.70;;;;;;;;;;4994754;28;20338;-25
2022/01/07 04:15:09;;;;;;;6.03;2.35;;;;;;;;;;4994899;28;20476;-25
2022/01/07 04:17:37;;;;;;;5.15;2.50;;;;;;;;;;4994836;28;20041;-25
2022/01/07 04:20:04;;;;;;;10.93;3.88;;;;;;;;;;4994885;28;20136;-25
2022/01/07 04:22:32;;;;;;;5.22;2.30;;;;;;;;;;4995104;28;20065;-26
2022/01/07 04:24:59;;;;;;;6.80;2.92;;;;;;;;;;4994882;28;20026;-25
2022/01/07 04:27:25;;;;;;;9.50;3.25;;;;;;;;;;4994802;28;20030;-26
2022/01/07 04:29:51;;;;;;;8.85;2.10;;;;;;;;;;4995707;28;20181;-25
2022/01/07 04:32:18;;;;;;;10.57;2.67;;;;;;;;;;4994781;28;20034;-25
2022/01/07 04:34:45;;;;;;;6.10;1.95;;;;;;;;;;4994733;28;20496;-25
2022/01/07 04:37:11;;;;;;;8.77;2.85;;;;;;;;;;4998586;28;20030;-25
2022/01/07 04:39:37;;;;;;;7.85;2.58;;;;;;;;;;4998879;28;20023;-25
2022/01/07 04:42:03;;;;;;;4.13;2.42;;;;;;;;;;4998788;28;20056;-26
2022/01/07 04:44:30;;;;;;;5.30;2.70;;;;;;;;;;4998571;28;20034;-25
2022/01/07 04:46:56;;;;;;;10.40;2.40;;;;;;;;;;4998509;28;20033;-26
2022/01/07 04:49:22;;;;;;;3.97;2.20;;;;;;;;;;4998367;28;20134;-25
2022/01/07 04:51:48;;;;;;;4.63;2.22;;;;;;;;;;4998809;28;20030;-25
2022/01/07 04:54:14;;;;;;;6.78;2.30;;;;;;;;;;4998315;28;20034;-25
2022/01/07 04:56:41;;;;;;;8.05;2.13;;;;;;;;;;4998182;28;20065;-26
2022/01/07 04:59:07;;;;;;;6.53;2.30;;;;;;;;;;4998038;28;20092;-25
2022/01/07 05:01:33;;;;;;;5.88;2.22;;;;;;;;;;4998642;28;20022;-25
2022/01/07 05:03:59;;;;;;;8.75;2.40;;;;;;;;;;4998639;28;20049;-26
2022/01/07 05:06:44;;;;;;;7.43;3.22;;;;;;;;;;4997946;28;20041;-26
2022/01/07 05:09:16;;;;;;;4.90;2.50;;;;;;;;;;4998208;28;20033;-26
2022/01/07 05:11:42;;;;;;;11.93;2.30;;;;;;;;;;4998460;28;20482;-26
2022/01/07 05:14:08;;;;;;;5.38;2.05;;;;;;;;;;4997939;28;20034;-26
2022/01/07 05:16:35;;;;;;;6.22;3.33;;;;;;;;;;4997855;28;20030;-26
2022/01/07 05:19:02;;;;;;;5.95;2.15;;;;;;;;;;4997622;28;20038;-26
2022/01/07 05:21:28;;;;;;;5.30;2.33;;;;;;;;;;4997809;28;20084;-26
2022/01/07 05:23:54;;;;;;;8.40;3.92;;;;;;;;;;4997668;28;20106;-27
2022/01/07 05:26:21;;;;;;;4.03;2.13;;;;;;;;;;4997373;28;20061;-26
2022/01/07 05:28:47;;;;;;;5.70;2.13;;;;;;;;;;4997721;28;20093;-26
2022/01/07 05:31:13;;;;;;;5.80;2.78;;;;;;;;;;4997951;28;20040;-27
2022/01/07 05:33:39;;;;;;;6.55;2.42;;;;;;;;;;4997364;28;20061;-26
2022/01/07 05:36:06;;;;;;;9.45;1.90;;;;;;;;;;4997741;28;20122;-25
2022/01/07 05:38:32;;;;;;;4.43;1.95;;;;;;;;;;4997312;28;20520;-25
2022/01/07 05:40:58;;;;;;;6.28;2.05;;;;;;;;;;4998266;28;20342;-25
2022/01/07 05:43:24;;;;;;;7.00;2.00;;;;;;;;;;4997263;28;20035;-25
2022/01/07 05:45:50;;;;;;;7.55;2.05;;;;;;;;;;4996963;28;20051;-25
2022/01/07 05:48:17;;;;;;;8.77;2.20;;;;;;;;;;4997056;28;20080;-25
2022/01/07 05:50:43;;;;;;;4.90;3.05;;;;;;;;;;4997136;28;20026;-25
2022/01/07 05:53:10;;;;;;;6.20;1.85;;;;;;;;;;4997176;28;20045;-25
2022/01/07 05:55:36;;;;;;;5.15;2.20;;;;;;;;;;4996873;28;20038;-25
2022/01/07 05:58:02;;;;;;;5.75;2.45;;;;;;;;;;4997344;28;20040;-25
2022/01/07 06:00:28;;;;;;;5.07;2.13;;;;;;;;;;4996774;28;20045;-25
2022/01/07 06:02:55;;;;;;;5.20;2.00;;;;;;;;;;4996650;28;20044;-25
2022/01/07 06:05:21;;;;;;;5.47;1.83;;;;;;;;;;4997033;28;20335;-25
2022/01/07 06:07:47;;;;;;;9.43;3.17;;;;;;;;;;4997058;28;20365;-25
2022/01/07 06:10:13;;;;;;;6.78;2.78;;;;;;;;;;4995903;28;20035;-25
2022/01/07 06:12:40;;;;;;;4.60;2.08;;;;;;;;;;4997134;28;20058;-25
2022/01/07 06:15:07;;;;;;;10.27;3.05;;;;;;;;;;4996921;28;20037;-24
2022/01/07 06:17:33;;;;;;;6.22;2.28;;;;;;;;;;4996621;28;20034;-25
2022/01/07 06:19:59;;;;;;;5.72;2.00;;;;;;;;;;4995622;28;20049;-25
2022/01/07 06:22:25;;;;;;;9.25;2.33;;;;;;;;;;4996444;28;20062;-25
2022/01/07 06:24:51;;;;;;;6.10;2.22;;;;;;;;;;4996333;28;20057;-25
2022/01/07 06:27:17;;;;;;;7.85;2.67;;;;;;;;;;4996471;28;20031;-25
2022/01/07 06:29:44;;;;;;;13.52;2.88;;;;;;;;;;4996476;28;20057;-25
2022/01/07 06:32:10;;;;;;;10.63;2.72;;;;;;;;;;4996399;28;20033;-25
2022/01/07 06:34:36;;;;;;;9.48;2.28;;;;;;;;;;4996648;28;20026;-25
2022/01/07 06:37:03;;;;;;;6.10;2.13;;;;;;;;;;4996258;28;20034;-25
2022/01/07 06:39:29;;;;;;;7.43;2.95;;;;;;;;;;4996235;28;20045;-25
2022/01/07 06:41:57;;;;;;;8.85;2.05;;;;;;;;;;4996008;28;20041;-25
2022/01/07 06:44:23;;;;;;;8.57;2.47;;;;;;;;;;4995077;28;20038;-25
2022/01/07 06:46:50;;;;;;;10.50;2.95;;;;;;;;;;4994984;28;20095;-25
2022/01/07 06:49:16;;;;;;;4.93;2.30;;;;;;;;;;4994852;28;20036;-24
2022/01/07 06:51:43;;;;;;;10.88;2.08;;;;;;;;;;4995809;28;20397;-25
2022/01/07 06:54:11;;;;;;;12.98;2.58;;;;;;;;;;4996032;28;20406;-24
2022/01/07 06:56:44;;;;;;;9.93;2.47;;;;;;;;;;4995842;28;20462;-25
2022/01/07 06:59:12;;;;;;;5.25;2.63;;;;;;;;;;4995452;28;20044;-25
2022/01/07 07:01:39;;;;;;;10.80;5.57;;;;;;;;;;4995623;28;20457;-25
2022/01/07 07:04:05;;;;;;;12.65;2.65;;;;;;;;;;4994156;28;20114;-25
2022/01/07 07:06:31;;;;;;;9.05;2.53;;;;;;;;;;4995467;28;20343;-25
2022/01/07 07:08:57;;;;;;;7.90;2.75;;;;;;;;;;4995629;28;20042;-25
2022/01/07 07:11:23;;;;;;;13.18;2.95;;;;;;;;;;4995196;28;20369;-24
2022/01/07 07:13:50;;;;;;;10.35;3.20;;;;;;;;;;4995087;28;20034;-25
2022/01/07 07:16:16;;;;;;;10.85;3.83;;;;;;;;;;4995898;28;20053;-25
2022/01/07 07:18:42;;;;;;;11.18;3.22;;;;;;;;;;4995439;28;20037;-24
2022/01/07 07:21:08;;;;;;;11.63;2.53;;;;;;;;;;4995602;28;20109;-25
2022/01/07 07:23:35;;;;;;;7.45;1.85;;;;;;;;;;4995815;28;20319;-25
2022/01/07 07:26:01;;;;;;;5.20;2.25;;;;;;;;;;4995601;28;20033;-25
2022/01/07 07:28:27;;;;;;;8.70;2.35;;;;;;;;;;4995850;28;20031;-25
2022/01/07 07:30:57;;;;;;;10.32;2.40;;;;;;;;;;4995072;28;20030;-25
2022/01/07 07:38:35;;;;;;;14.13;4.72;;;;;;;;;;4995011;28;20049;-25
2022/01/07 07:41:01;;;;;;;10.05;2.90;;;;;;;;;;4994873;28;20058;-25
2022/01/07 07:43:28;;;;;;;16.55;2.17;;;;;;;;;;4994975;28;20369;-25
2022/01/07 07:45:54;;;;;;;6.38;2.67;;;;;;;;;;4994866;28;20077;-25
2022/01/07 07:48:20;;;;;;;9.60;2.10;;;;;;;;;;4994857;28;20352;-25
2022/01/07 07:50:46;;;;;;;5.65;2.38;;;;;;;;;;4995180;28;20402;-25
2022/01/07 07:53:12;;;;;;;6.47;2.53;;;;;;;;;;4994905;28;20545;-25
2022/01/07 07:55:38;;;;;;;10.43;3.33;;;;;;;;;;4994975;28;20117;-25
2022/01/07 07:58:05;;;;;;;14.18;2.90;;;;;;;;;;4995260;28;20081;-25
2022/01/07 08:00:31;;;;;;;9.40;2.65;;;;;;;;;;4994779;28;20038;-25
2022/01/07 08:03:00;;;;;;;14.70;3.28;;;;;;;;;;4994611;28;20042;-25
2022/01/07 08:05:27;;;;;;;5.07;2.63;;;;;;;;;;4995002;28;20026;-25
2022/01/07 08:07:53;;;;;;;12.98;2.50;;;;;;;;;;4993794;28;20372;-25
2022/01/07 08:10:23;;;;;;;10.10;2.58;;;;;;;;;;4996560;28;20100;-25
2022/01/07 08:12:53;;;;;;;4.53;2.17;;;;;;;;;;4999157;28;20034;-25
2022/01/07 08:18:04;;;;;;;3.90;1.95;;;;;;;;;;4999250;28;20092;-26
2022/01/07 08:20:31;;;;;;;10.07;2.75;;;;;;;;;;4998987;28;20034;-25
2022/01/07 08:22:57;;;;;;;11.88;2.15;;;;;;;;;;4999167;28;20030;-25
2022/01/07 08:25:27;;;;;;;8.10;2.47;;;;;;;;;;4998671;28;20445;-25
2022/01/07 08:27:56;;;;;;;14.35;2.97;;;;;;;;;;4998551;28;20474;-25
2022/01/07 08:30:26;;;;;;;7.13;2.55;;;;;;;;;;4998453;28;20089;-26
2022/01/07 08:35:38;;;;;;;4.95;2.67;;;;;;;;;;4998732;28;20042;-26
2022/01/07 08:38:05;;;;;;;6.55;3.20;;;;;;;;;;4998509;28;20031;-25
2022/01/07 08:40:31;;;;;;;8.45;2.65;;;;;;;;;;4998505;28;20061;-25
2022/01/07 08:42:57;;;;;;;7.20;2.42;;;;;;;;;;4998288;28;20085;-26
2022/01/07 08:45:25;;;;;;;20.77;4.18;;;;;;;;;;4997283;28;20030;-26
2022/01/07 08:47:52;;;;;;;12.35;3.85;;;;;;;;;;4998397;28;20108;-25
2022/01/07 08:50:18;;;;;;;11.25;2.42;;;;;;;;;;4998471;28;20052;-25
2022/01/07 08:52:44;;;;;;;14.07;2.40;;;;;;;;;;4998139;28;20413;-25
2022/01/07 08:55:11;;;;;;;7.97;2.30;;;;;;;;;;4998246;28;20117;-27
2022/01/07 08:57:37;;;;;;;30.10;2.72;;;;;;;;;;4998058;28;20038;-26
2022/01/07 09:00:04;;;;;;;7.10;2.33;;;;;;;;;;4996965;28;20446;-26
2022/01/07 09:02:30;;;;;;;4.30;2.13;;;;;;;;;;4997734;28;20068;-26
2022/01/07 09:04:56;;;;;;;7.30;2.42;;;;;;;;;;4998301;28;20149;-26
2022/01/07 09:07:22;;;;;;;7.85;2.55;;;;;;;;;;4997898;28;20026;-26
2022/01/07 09:09:49;;;;;;;6.55;2.60;;;;;;;;;;4998027;28;20038;-26
2022/01/07 09:12:16;;;;;;;5.50;1.65;;;;;;;;;;4997495;28;20069;-26
2022/01/07 09:14:43;;;;;;;13.80;2.83;;;;;;;;;;4997705;28;20105;-26
2022/01/07 09:17:09;;;;;;;7.13;2.13;;;;;;;;;;4997560;28;20034;-26
2022/01/07 09:19:35;;;;;;;11.45;2.15;;;;;;;;;;4997667;28;20042;-26
2022/01/07 09:22:01;;;;;;;7.45;3.00;;;;;;;;;;4997439;28;20050;-26
2022/01/07 09:24:29;;;;;;;10.35;2.08;;;;;;;;;;4997555;28;20378;-26
2022/01/07 09:26:55;;;;;;;17.20;2.95;;;;;;;;;;4997501;28;20062;-26
2022/01/07 09:29:26;;;;;;;6.03;2.10;;;;;;;;;;4997736;28;20445;-26
2022/01/07 09:31:53;;;;;;;4.13;2.08;;;;;;;;;;4997693;28;20050;-26
2022/01/07 09:34:19;;;;;;;9.05;2.38;;;;;;;;;;4997627;28;20430;-26
2022/01/07 09:36:45;;;;;;;7.50;2.65;;;;;;;;;;4997266;28;20030;-26
2022/01/07 09:39:12;;;;;;;11.43;4.38;;;;;;;;;;4997200;28;20093;-26
2022/01/07 09:41:38;;;;;;;8.57;1.80;;;;;;;;;;4997207;28;20018;-26
2022/01/07 09:44:09;;;;;;;9.10;2.30;;;;;;;;;;4997028;28;20057;-27
2022/01/07 09:46:35;;;;;;;15.23;2.77;;;;;;;;;;4997399;28;20034;-26
2022/01/07 09:49:01;;;;;;;6.75;2.35;;;;;;;;;;4997291;28;20062;-26
2022/01/07 09:51:28;;;;;;;11.00;2.25;;;;;;;;;;4996010;28;20117;-27
2022/01/07 09:53:54;;;;;;;6.45;2.28;;;;;;;;;;4996996;28;20026;-27
2022/01/07 09:56:20;;;;;;;4.35;1.90;;;;;;;;;;4996819;28;20045;-24
2022/01/07 09:58:47;;;;;;;9.05;1.98;;;;;;;;;;4995680;28;20026;-24
2022/01/07 10:01:19;;;;;;;4.60;2.13;;;;;;;;;;4996983;28;20385;-24
2022/01/07 10:03:46;;;;;;;12.93;3.20;;;;;;;;;;4996475;28;20046;-24
2022/01/07 10:06:17;;;;;;;11.57;2.75;;;;;;;;;;4996634;28;20030;-24
2022/01/07 10:08:43;;;;;;;8.15;2.28;;;;;;;;;;4996594;28;20034;-27
2022/01/07 10:11:18;;;;;;;8.65;4.05;;;;;;;;;;4996478;28;20481;-27
2022/01/07 10:13:49;;;;;;;14.25;3.88;;;;;;;;;;4996574;28;20105;-27
2022/01/07 10:16:16;;;;;;;11.87;2.40;;;;;;;;;;4996656;28;20453;-26
2022/01/07 10:18:43;;;;;;;8.40;2.83;;;;;;;;;;4997044;28;20030;-23
2022/01/07 10:21:11;;;;;;;4.93;1.88;;;;;;;;;;4996541;28;20416;-25
2022/01/07 10:23:37;;;;;;;14.30;3.00;;;;;;;;;;4995097;28;20101;-24
2022/01/07 10:26:04;;;;;;;8.60;2.35;;;;;;;;;;4996174;28;20458;-24
2022/01/07 10:28:31;;;;;;;4.85;2.10;;;;;;;;;;4996188;28;20018;-24
2022/01/07 10:31:02;;;;;;;9.43;2.30;;;;;;;;;;4996367;28;20377;-24
2022/01/07 10:33:41;;;;;;;9.32;2.33;;;;;;;;;;4995714;28;20095;-24
2022/01/07 10:36:07;;;;;;;7.07;1.98;;;;;;;;;;4996599;28;20541;-24
2022/01/07 10:38:35;;;;;;;5.05;2.08;;;;;;;;;;4995630;28;20121;-24
2022/01/07 10:41:02;;;;;;;7.22;2.72;;;;;;;;;;4996408;28;20026;-24
2022/01/07 10:43:35;;;;;;;3.78;2.42;;;;;;;;;;4995764;28;20023;-24
2022/01/07 10:46:02;;;;;;;8.15;2.42;;;;;;;;;;4996241;28;20022;-23
2022/01/07 10:48:51;;;;;;;9.45;2.55;;;;;;;;;;4996105;28;20142;-24
2022/01/07 10:51:19;;;;;;;12.60;2.25;;;;;;;;;;4996053;28;20508;-24
2022/01/07 10:53:59;;;;;;;8.25;3.15;;;;;;;;;;4995850;28;20057;-27
2022/01/07 10:56:50;;;;;;;4.93;2.03;;;;;;;;;;4995636;28;20049;-27
2022/01/07 10:59:17;;;;;;;8.70;2.17;;;;;;;;;;4995500;28;20057;-24
2022/01/07 11:01:44;;;;;;;10.02;3.22;;;;;;;;;;4994247;28;20381;-24
2022/01/07 11:04:18;;;;;;;5.97;1.88;;;;;;;;;;4994521;28;20042;-24
2022/01/07 11:06:45;;;;;;;9.95;2.40;;;;;;;;;;4995796;28;20023;-24
2022/01/07 11:09:12;;;;;;;11.73;2.53;;;;;;;;;;4995291;28;20061;-24
2022/01/07 11:11:49;;;;;;;10.95;1.73;;;;;;;;;;4995438;28;20030;-24
2022/01/07 11:14:19;;;;;;;10.73;2.35;;;;;;;;;;4995675;28;20045;-24
2022/01/07 11:16:45;;;;;;;9.13;1.98;;;;;;;;;;4994394;28;20034;-25
2022/01/07 11:19:18;;;;;;;8.55;2.13;;;;;;;;;;4995055;28;20030;-25
2022/01/07 11:21:47;;;;;;;10.32;2.33;;;;;;;;;;4994180;28;20041;-25
2022/01/07 11:24:35;;;;;;;7.05;2.45;;;;;;;;;;4995554;28;20033;-24
2022/01/07 11:27:03;;;;;;;8.63;2.05;;;;;;;;;;4995255;28;20041;-25
2022/01/07 11:29:29;;;;;;;5.70;1.60;;;;;;;;;;4995105;28;20512;-25
2022/01/07 11:32:15;;;;;;;7.18;2.25;;;;;;;;;;4994961;28;20088;-25
2022/01/07 11:34:41;;;;;;;4.63;1.65;;;;;;;;;;4995082;28;20396;-25
2022/01/07 11:37:27;;;;;;;7.30;1.98;;;;;;;;;;4994998;28;20026;-25
2022/01/07 11:39:54;;;;;;;6.80;2.40;;;;;;;;;;4994979;28;20092;-25
2022/01/07 11:42:38;;;;;;;12.35;3.08;;;;;;;;;;4993954;28;20026;-25
2022/01/07 11:45:26;;;;;;;4.68;2.25;;;;;;;;;;4994468;28;20042;-25
2022/01/07 11:47:53;;;;;;;6.45;2.05;;;;;;;;;;4995008;28;20034;-25
2022/01/07 11:50:19;;;;;;;5.30;1.65;;;;;;;;;;4977967;28;20092;-25
2022/01/07 11:53:00;;;;;;;5.60;1.92;;;;;;;;;;4993580;28;20441;-25
2022/01/07 11:55:30;;;;;;;11.93;2.45;;;;;;;;;;4993500;28;20113;-24
2022/01/07 11:57:58;;;;;;;11.13;2.70;;;;;;;;;;4993371;28;20066;-25
2022/01/07 12:00:43;;;;;;;9.18;2.35;;;;;;;;;;4994729;28;20022;-25
2022/01/07 12:03:09;;;;;;;8.18;2.33;;;;;;;;;;4992935;28;20503;-25
2022/01/07 12:05:35;;;;;;;9.55;2.63;;;;;;;;;;4993548;28;20037;-25
2022/01/07 12:08:01;;;;;;;5.57;1.90;;;;;;;;;;4994469;28;20026;-25
2022/01/07 12:10:28;;;;;;;7.53;2.13;;;;;;;;;;4994729;28;20474;-25
2022/01/07 12:13:01;;;;;;;8.38;2.17;;;;;;;;;;4994635;28;20358;-25
2022/01/07 12:15:27;;;;;;;8.93;1.88;;;;;;;;;;4994764;28;20044;-25
2022/01/07 12:17:54;;;;;;;10.27;2.42;;;;;;;;;;4994342;28;20022;-25
2022/01/07 12:20:46;;;;;;;10.25;1.83;;;;;;;;;;4994510;28;20034;-25
2022/01/07 12:23:18;;;;;;;10.45;2.40;;;;;;;;;;4994672;28;20520;-25
2022/01/07 12:25:48;;;;;;;9.50;2.28;;;;;;;;;;4994504;28;20169;-25
2022/01/07 12:28:15;;;;;;;8.00;2.15;;;;;;;;;;4994926;28;20022;-25
2022/01/07 12:30:43;;;;;;;4.85;2.00;;;;;;;;;;4994285;28;20030;-25
2022/01/07 12:33:10;;;;;;;3.63;1.75;;;;;;;;;;4994598;28;20354;-25
2022/01/07 12:35:37;;;;;;;6.10;1.83;;;;;;;;;;4994357;28;20030;-25
2022/01/07 12:38:13;;;;;;;9.32;2.38;;;;;;;;;;4994278;28;20061;-25
2022/01/07 12:40:40;;;;;;;8.65;2.42;;;;;;;;;;4994388;28;20042;-25
2022/01/07 12:43:06;;;;;;;11.15;2.53;;;;;;;;;;4994246;28;20442;-25
2022/01/07 12:45:32;;;;;;;7.30;2.10;;;;;;;;;;4994410;28;20085;-25
2022/01/07 12:47:59;;;;;;;11.35;2.08;;;;;;;;;;4994210;28;20068;-26
2022/01/07 12:50:25;;;;;;;8.73;2.45;;;;;;;;;;4994137;28;20058;-26
2022/01/07 12:52:51;;;;;;;5.75;3.03;;;;;;;;;;4992808;28;20030;-26
2022/01/07 12:55:22;;;;;;;9.77;2.00;;;;;;;;;;4994172;28;20103;-25
2022/01/07 12:57:57;;;;;;;9.10;2.10;;;;;;;;;;4996730;28;20030;-25
2022/01/07 13:00:26;;;;;;;10.68;2.17;;;;;;;;;;4997996;28;20254;-26
2022/01/07 13:02:58;;;;;;;18.65;4.38;;;;;;;;;;4996391;28;20133;-26
2022/01/07 13:05:26;;;;;;;4.22;3.35;;;;;;;;;;4997898;28;20073;-25
2022/01/07 13:07:54;;;;;;;6.85;2.42;;;;;;;;;;4997625;28;20425;-25
2022/01/07 13:10:21;;;;;;;4.82;1.95;;;;;;;;;;4997538;28;20045;-26
2022/01/07 13:12:54;;;;;;;7.60;1.85;;;;;;;;;;4997466;28;20026;-25
2022/01/07 13:15:34;;;;;;;14.50;2.05;;;;;;;;;;4997799;28;20037;-25
2022/01/07 13:18:20;;;;;;;8.23;1.92;;;;;;;;;;4997366;28;20026;-25
2022/01/07 13:20:47;;;;;;;11.88;1.98;;;;;;;;;;4997498;28;20030;-26
2022/01/07 13:23:15;;;;;;;4.28;1.95;;;;;;;;;;4997502;28;20033;-25
2022/01/07 13:25:41;;;;;;;6.57;2.78;;;;;;;;;;4997400;28;20057;-26
2022/01/07 13:28:07;;;;;;;9.50;1.85;;;;;;;;;;4997437;28;20067;-26
2022/01/07 13:30:35;;;;;;;3.88;2.17;;;;;;;;;;4997549;28;20406;-26
2022/01/07 13:33:10;;;;;;;9.27;2.78;;;;;;;;;;4997442;28;20069;-26
2022/01/07 13:35:37;;;;;;;6.05;1.80;;;;;;;;;;4997478;28;20030;-26
2022/01/07 13:38:11;;;;;;;8.65;2.35;;;;;;;;;;4997447;28;20026;-25
2022/01/07 13:40:37;;;;;;;5.20;1.85;;;;;;;;;;4997572;28;20045;-26
2022/01/07 13:43:11;;;;;;;10.13;1.98;;;;;;;;;;4996273;28;20358;-26
2022/01/07 13:45:37;;;;;;;10.05;2.45;;;;;;;;;;4996889;28;20041;-25
2022/01/07 13:48:08;;;;;;;11.98;3.08;;;;;;;;;;4996644;28;20041;-26
2022/01/07 13:50:35;;;;;;;13.23;1.83;;;;;;;;;;4997068;28;20408;-25
2022/01/07 13:53:14;;;;;;;12.18;2.10;;;;;;;;;;4996732;28;20030;-27
2022/01/07 13:55:41;;;;;;;9.60;2.45;;;;;;;;;;4997026;28;20038;-26
2022/01/07 13:58:11;;;;;;;8.35;2.47;;;;;;;;;;4995665;28;20181;-26
2022/01/07 14:00:39;;;;;;;10.75;2.60;;;;;;;;;;4996803;28;20365;-27
2022/01/07 14:03:05;;;;;;;11.38;2.05;;;;;;;;;;4996593;28;20377;-27
2022/01/07 14:05:32;;;;;;;11.88;3.13;;;;;;;;;;4996966;28;20041;-26
2022/01/07 14:07:58;;;;;;;20.50;2.67;;;;;;;;;;4994755;28;20038;-26
2022/01/07 14:10:28;;;;;;;11.57;2.80;;;;;;;;;;4996621;28;20034;-27
2022/01/07 14:12:54;;;;;;;11.80;2.10;;;;;;;;;;4995352;28;20105;-23
2022/01/07 14:15:27;;;;;;;8.70;2.60;;;;;;;;;;4996677;28;20042;-24
2022/01/07 14:18:06;;;;;;;11.02;2.40;;;;;;;;;;4996221;28;20030;-24
2022/01/07 14:20:42;;;;;;;15.20;3.10;;;;;;;;;;4996631;28;20437;-24
2022/01/07 14:23:12;;;;;;;8.18;1.73;;;;;;;;;;4995166;28;20467;-24
2022/01/07 14:25:39;;;;;;;9.93;1.90;;;;;;;;;;4996073;28;20041;-24
2022/01/07 14:28:05;;;;;;;8.27;2.20;;;;;;;;;;4995144;28;20052;-24
2022/01/07 14:30:31;;;;;;;10.70;2.35;;;;;;;;;;4996389;28;20030;-25
2022/01/07 14:32:57;;;;;;;12.77;2.55;;;;;;;;;;4995930;28;20367;-24
2022/01/07 14:35:23;;;;;;;8.80;2.67;;;;;;;;;;4996344;28;20050;-24
2022/01/07 14:37:50;;;;;;;10.27;2.63;;;;;;;;;;4996280;28;20077;-24
2022/01/07 14:40:16;;;;;;;13.25;2.70;;;;;;;;;;4996476;28;20026;-24
2022/01/07 14:42:42;;;;;;;7.60;1.90;;;;;;;;;;4995943;28;20038;-25
2022/01/07 14:45:10;;;;;;;4.07;1.90;;;;;;;;;;4995882;28;20466;-25
2022/01/07 14:47:37;;;;;;;7.45;2.33;;;;;;;;;;4995916;28;20124;-25
2022/01/07 14:50:03;;;;;;;17.38;2.50;;;;;;;;;;4995893;28;20030;-25
2022/01/07 14:52:30;;;;;;;12.02;2.15;;;;;;;;;;4994638;28;20100;-25